Time;durP1;ratioP1;P1;durP2;ratioP2;P2;SDS_P1;SDS_P2;PMS_P1;PMS_P2;Temp;Humidity;BMP_temperature;BMP_pressure;BME280_temperature;BME280_humidity;BME280_pressure;Samples;Min_cycle;Max_cycle;Signal;HPM_P1;HPM_P2
2022/07/20 00:01:43;;;;;;;6.22;2.50;;;25.00;52.10;;;;;;5097703;28;20561;-79
2022/07/20 00:04:13;;;;;;;5.47;2.17;;;24.90;52.10;;;;;;5096827;28;20197;-79
2022/07/20 00:06:41;;;;;;;7.38;2.30;;;24.90;52.30;;;;;;5101699;27;20193;-78
2022/07/20 00:11:56;;;;;;;8.93;2.35;;;24.80;52.60;;;;;;5105457;27;20190;-78
2022/07/20 00:14:25;;;;;;;6.75;2.00;;;24.80;53.50;;;;;;5107348;27;20859;-77
2022/07/20 00:16:53;;;;;;;6.93;2.10;;;24.70;53.00;;;;;;5097144;27;20192;-77
2022/07/20 00:19:23;;;;;;;5.85;2.45;;;24.70;53.20;;;;;;5092034;28;20233;-76
2022/07/20 00:21:51;;;;;;;9.43;2.63;;;24.60;53.40;;;;;;5107178;28;20197;-77
2022/07/20 00:24:20;;;;;;;6.28;2.67;;;24.60;53.60;;;;;;5106821;27;20218;-80
2022/07/20 00:26:48;;;;;;;7.10;2.22;;;24.60;53.70;;;;;;5095424;28;20615;-78
2022/07/20 00:29:16;;;;;;;8.70;2.40;;;24.50;53.70;;;;;;5102571;27;20204;-77
2022/07/20 00:31:45;;;;;;;5.63;2.17;;;24.50;53.80;;;;;;5100476;28;20200;-77
2022/07/20 00:34:13;;;;;;;6.78;2.17;;;24.50;53.90;;;;;;5098870;27;20280;-77
2022/07/20 00:36:43;;;;;;;6.53;2.40;;;24.50;54.10;;;;;;5101259;28;20200;-78
2022/07/20 00:39:12;;;;;;;10.55;2.42;;;24.40;54.20;;;;;;5091696;28;21107;-77
2022/07/20 00:41:40;;;;;;;9.10;2.30;;;24.30;54.10;;;;;;5089297;27;20259;-78
2022/07/20 00:44:10;;;;;;;5.60;2.15;;;24.30;54.30;;;;;;5090129;27;20665;-79
2022/07/20 00:46:42;;;;;;;3.97;1.77;;;24.30;54.60;;;;;;5108085;27;20189;-77
2022/07/20 00:49:12;;;;;;;6.20;2.42;;;24.20;54.70;;;;;;5111227;27;20590;-78
2022/07/20 00:51:41;;;;;;;6.13;2.10;;;24.20;54.90;;;;;;5097953;28;20648;-78
2022/07/20 00:54:12;;;;;;;6.03;1.90;;;24.20;55.00;;;;;;5099473;27;20191;-78
2022/07/20 00:56:40;;;;;;;7.88;2.15;;;24.10;55.10;;;;;;5104000;27;20217;-78
2022/07/20 00:59:11;;;;;;;7.40;2.85;;;24.10;55.10;;;;;;5097085;27;20296;-77
2022/07/20 01:01:40;;;;;;;5.63;2.38;;;24.10;55.20;;;;;;5092845;27;20194;-79
2022/07/20 01:04:09;;;;;;;9.65;3.33;;;24.10;55.20;;;;;;5106477;27;20258;-78
2022/07/20 01:06:37;;;;;;;9.65;2.58;;;24.00;55.20;;;;;;5091163;27;20197;-77
2022/07/20 01:09:06;;;;;;;11.80;2.83;;;24.00;55.30;;;;;;5094877;27;20287;-78
2022/07/20 01:11:36;;;;;;;6.20;2.40;;;24.00;55.40;;;;;;5107334;28;20197;-77
2022/07/20 01:14:06;;;;;;;13.60;2.90;;;24.00;55.50;;;;;;5094096;27;20573;-79
2022/07/20 01:16:35;;;;;;;7.93;2.88;;;24.00;55.60;;;;;;5091118;28;20569;-79
2022/07/20 01:19:05;;;;;;;8.52;2.92;;;23.90;55.70;;;;;;5084952;27;20217;-77
2022/07/20 01:21:40;;;;;;;9.52;2.78;;;23.90;55.90;;;;;;5095310;27;20252;-78
2022/07/20 01:24:10;;;;;;;7.60;3.10;;;23.90;56.00;;;;;;5096177;27;20213;-78
2022/07/20 01:26:40;;;;;;;9.27;2.60;;;23.90;56.20;;;;;;5095324;28;20273;-78
2022/07/20 01:29:08;;;;;;;4.43;2.03;;;23.90;56.30;;;;;;5101451;27;20204;-78
2022/07/20 01:31:37;;;;;;;4.80;2.30;;;23.80;56.40;;;;;;5100987;28;20185;-78
2022/07/20 01:34:06;;;;;;;6.25;2.40;;;23.80;56.40;;;;;;5100353;27;20635;-78
2022/07/20 01:36:38;;;;;;;5.88;2.50;;;23.80;56.50;;;;;;5089826;28;20192;-80
2022/07/20 01:39:07;;;;;;;5.05;2.45;;;23.70;56.50;;;;;;5092520;27;20221;-78
2022/07/20 01:41:35;;;;;;;5.97;2.30;;;23.70;56.60;;;;;;5093797;28;20202;-78
2022/07/20 01:44:04;;;;;;;8.43;2.63;;;23.70;56.60;;;;;;5095311;27;20196;-79
2022/07/20 01:46:32;;;;;;;8.95;2.45;;;23.70;56.70;;;;;;5097680;27;20185;-78
2022/07/20 01:49:01;;;;;;;7.68;2.42;;;23.70;56.70;;;;;;5102034;27;20189;-78
2022/07/20 01:51:30;;;;;;;7.80;2.47;;;23.70;56.70;;;;;;5092289;28;20224;-78
2022/07/20 01:53:59;;;;;;;10.05;2.63;;;23.70;56.60;;;;;;5096315;28;20662;-79
2022/07/20 01:56:28;;;;;;;12.15;3.40;;;23.70;56.60;;;;;;5099780;27;20219;-78
2022/07/20 01:58:56;;;;;;;6.47;2.13;;;23.70;56.60;;;;;;5090120;28;20189;-77
2022/07/20 02:01:26;;;;;;;6.53;2.60;;;23.70;56.60;;;;;;5101162;27;20224;-79
2022/07/20 02:03:55;;;;;;;6.70;2.40;;;23.70;56.60;;;;;;5099073;28;20189;-78
2022/07/20 02:06:23;;;;;;;4.90;2.25;;;23.60;56.80;;;;;;5099823;28;20212;-79
2022/07/20 02:08:51;;;;;;;6.93;2.47;;;23.60;56.80;;;;;;5095571;28;20189;-78
2022/07/20 02:11:22;;;;;;;10.23;2.60;;;23.60;56.90;;;;;;5100074;28;20585;-79
2022/07/20 02:13:50;;;;;;;4.88;2.30;;;23.60;57.10;;;;;;5101771;28;20186;-79
2022/07/20 02:16:19;;;;;;;6.85;2.58;;;23.60;57.20;;;;;;5092108;28;20201;-78
2022/07/20 02:18:49;;;;;;;3.75;2.30;;;23.60;57.30;;;;;;5096723;28;20197;-79
2022/07/20 02:21:22;;;;;;;5.35;2.50;;;23.50;57.40;;;;;;5092242;27;20608;-78
2022/07/20 02:23:51;;;;;;;6.32;2.60;;;23.50;57.60;;;;;;5099761;28;20200;-79
2022/07/20 02:26:21;;;;;;;9.20;2.70;;;23.50;57.70;;;;;;5102046;28;20886;-78
2022/07/20 02:28:49;;;;;;;5.32;2.47;;;23.50;58.00;;;;;;5092322;27;20678;-78
2022/07/20 02:31:19;;;;;;;6.88;2.72;;;23.40;58.10;;;;;;5102426;28;20197;-79
2022/07/20 02:33:48;;;;;;;8.95;2.47;;;23.40;58.20;;;;;;5101596;27;20185;-80
2022/07/20 02:36:17;;;;;;;8.57;3.20;;;23.40;58.30;;;;;;5100407;28;20228;-79
2022/07/20 02:38:46;;;;;;;7.00;2.95;;;23.40;58.40;;;;;;5099584;28;20197;-79
2022/07/20 02:41:15;;;;;;;7.18;3.15;;;23.40;58.50;;;;;;5093078;28;20248;-78
2022/07/20 02:43:45;;;;;;;14.55;3.42;;;23.40;58.60;;;;;;5102040;28;20220;-78
2022/07/20 02:46:13;;;;;;;6.57;3.20;;;23.40;59.40;;;;;;5092988;28;20244;-78
2022/07/20 02:48:42;;;;;;;9.93;2.78;;;23.30;58.70;;;;;;5103949;28;20204;-78
2022/07/20 02:51:10;;;;;;;8.98;2.70;;;23.30;58.80;;;;;;5100841;28;20224;-78
2022/07/20 02:53:39;;;;;;;6.55;2.83;;;23.30;58.90;;;;;;5103980;28;20185;-78
2022/07/20 02:56:07;;;;;;;15.25;3.30;;;23.30;59.00;;;;;;5097462;28;20193;-78
2022/07/20 02:58:36;;;;;;;9.02;2.92;;;23.20;58.90;;;;;;5098566;28;20193;-78
2022/07/20 03:01:06;;;;;;;6.25;2.80;;;23.20;59.00;;;;;;5099558;28;20227;-78
2022/07/20 03:03:34;;;;;;;8.75;2.78;;;23.20;59.10;;;;;;5104425;28;20280;-79
2022/07/20 03:06:03;;;;;;;14.82;3.15;;;23.20;59.20;;;;;;5096151;28;20423;-77
2022/07/20 03:08:31;;;;;;;9.57;2.85;;;23.10;59.20;;;;;;5087558;28;20324;-76
2022/07/20 03:11:00;;;;;;;9.68;3.25;;;23.10;59.30;;;;;;5093055;28;20221;-78
2022/07/20 03:13:29;;;;;;;11.45;3.17;;;23.10;59.40;;;;;;5103549;28;20193;-77
2022/07/20 03:15:58;;;;;;;6.07;2.70;;;23.10;59.50;;;;;;5084686;28;22364;-78
2022/07/20 03:18:28;;;;;;;8.32;3.25;;;23.10;59.80;;;;;;5103368;28;20658;-79
2022/07/20 03:20:56;;;;;;;9.02;2.95;;;23.10;59.90;;;;;;5095773;28;20304;-78
2022/07/20 03:23:25;;;;;;;6.93;2.72;;;23.00;59.80;;;;;;5080986;28;20190;-78
2022/07/20 03:25:53;;;;;;;7.80;3.30;;;23.00;59.90;;;;;;5087194;28;20231;-79
2022/07/20 03:28:22;;;;;;;7.93;3.20;;;23.00;60.10;;;;;;5101642;28;20197;-78
2022/07/20 03:30:50;;;;;;;15.52;2.85;;;23.00;60.30;;;;;;5092611;28;20280;-80
2022/07/20 03:33:19;;;;;;;7.72;2.92;;;23.00;60.30;;;;;;5099154;28;20193;-78
2022/07/20 03:35:49;;;;;;;6.07;3.58;;;23.00;60.50;;;;;;5093776;28;20189;-80
2022/07/20 03:38:17;;;;;;;11.35;2.80;;;23.00;60.60;;;;;;5092632;28;20189;-79
2022/07/20 03:40:46;;;;;;;10.00;2.85;;;23.00;60.60;;;;;;5096018;27;20393;-79
2022/07/20 03:43:14;;;;;;;7.75;2.60;;;23.00;60.70;;;;;;5098027;28;20186;-77
2022/07/20 03:45:42;;;;;;;5.28;2.80;;;23.00;60.90;;;;;;5097673;28;20718;-78
2022/07/20 03:48:11;;;;;;;9.60;2.95;;;23.00;60.80;;;;;;5093369;28;20193;-78
2022/07/20 03:50:39;;;;;;;6.82;2.85;;;23.00;61.30;;;;;;5093731;27;20193;-77
2022/07/20 03:53:09;;;;;;;6.63;3.03;;;23.00;61.30;;;;;;5105021;28;20221;-78
2022/07/20 03:55:39;;;;;;;5.60;2.58;;;23.00;61.40;;;;;;5103443;28;20189;-78
2022/07/20 03:58:07;;;;;;;4.82;2.97;;;23.00;61.40;;;;;;5099389;28;20197;-79
2022/07/20 04:00:36;;;;;;;4.80;2.63;;;23.00;61.40;;;;;;5094700;27;20225;-80
2022/07/20 04:03:04;;;;;;;6.50;2.65;;;23.10;61.40;;;;;;5103481;27;20587;-79
2022/07/20 04:05:33;;;;;;;6.53;2.80;;;23.10;61.40;;;;;;5097952;27;20193;-79
2022/07/20 04:08:01;;;;;;;6.68;2.85;;;23.10;61.40;;;;;;5099804;28;20220;-78
2022/07/20 04:10:31;;;;;;;11.05;3.30;;;23.10;61.30;;;;;;5096181;27;20189;-78
2022/07/20 04:13:00;;;;;;;6.78;2.78;;;23.10;61.40;;;;;;5103628;27;20197;-78
2022/07/20 04:15:28;;;;;;;9.70;3.10;;;23.10;61.40;;;;;;5103339;27;20193;-79
2022/07/20 04:17:56;;;;;;;7.70;2.85;;;23.20;61.50;;;;;;5106888;27;20199;-79
2022/07/20 04:20:25;;;;;;;8.23;2.90;;;23.20;61.50;;;;;;5104506;27;20194;-80
2022/07/20 04:22:54;;;;;;;5.88;3.15;;;23.20;62.40;;;;;;5098024;27;20320;-79
2022/07/20 04:25:22;;;;;;;11.25;3.35;;;23.30;61.60;;;;;;5104230;27;20649;-79
2022/07/20 04:27:52;;;;;;;9.05;3.08;;;23.30;61.70;;;;;;5102341;27;20291;-79
2022/07/20 04:30:21;;;;;;;7.45;3.00;;;23.40;61.80;;;;;;5105777;27;20796;-80
2022/07/20 04:32:49;;;;;;;9.45;3.63;;;23.40;61.90;;;;;;5107537;27;20489;-78
2022/07/20 04:35:18;;;;;;;10.77;3.20;;;23.50;61.90;;;;;;5107418;28;20227;-79
2022/07/20 04:37:46;;;;;;;6.90;3.05;;;23.50;61.90;;;;;;5103188;28;20240;-79
2022/07/20 04:40:14;;;;;;;9.02;3.13;;;23.60;61.80;;;;;;5105204;28;20193;-80
2022/07/20 04:42:43;;;;;;;7.82;3.00;;;23.60;61.90;;;;;;5108211;27;20222;-80
2022/07/20 04:45:13;;;;;;;6.70;2.58;;;23.70;61.80;;;;;;5100894;27;20201;-80
2022/07/20 04:47:42;;;;;;;6.13;2.97;;;23.70;61.90;;;;;;5105822;28;20208;-78
2022/07/20 04:50:10;;;;;;;7.95;3.10;;;23.70;61.80;;;;;;5102909;27;20204;-79
2022/07/20 04:52:39;;;;;;;7.45;3.30;;;23.80;61.80;;;;;;5102128;28;20225;-79
2022/07/20 04:55:08;;;;;;;9.88;3.03;;;23.90;61.90;;;;;;5102559;27;20204;-78
2022/07/20 04:57:37;;;;;;;6.45;2.70;;;23.90;61.80;;;;;;5108314;27;20608;-79
2022/07/20 05:00:07;;;;;;;5.93;2.90;;;24.00;61.80;;;;;;5107553;28;20599;-79
2022/07/20 05:02:37;;;;;;;6.15;2.78;;;24.00;62.50;;;;;;5102444;27;20209;-79
2022/07/20 05:05:06;;;;;;;6.50;2.67;;;24.10;61.70;;;;;;5108703;27;20191;-79
2022/07/20 05:07:35;;;;;;;6.90;2.63;;;24.10;61.50;;;;;;5105541;28;20195;-79
2022/07/20 05:10:04;;;;;;;6.53;3.17;;;24.20;61.60;;;;;;5099452;28;20665;-78
2022/07/20 05:12:33;;;;;;;12.15;3.72;;;24.30;61.50;;;;;;5097528;27;20204;-79
2022/07/20 05:15:01;;;;;;;7.47;2.80;;;24.40;61.40;;;;;;5099573;28;20550;-79
2022/07/20 05:17:29;;;;;;;7.15;3.00;;;24.50;61.40;;;;;;5099877;28;20201;-80
2022/07/20 05:19:59;;;;;;;8.43;3.08;;;24.50;61.40;;;;;;5106197;28;20639;-81
2022/07/20 05:22:28;;;;;;;6.03;2.88;;;24.60;61.40;;;;;;5105544;28;20213;-79
2022/07/20 05:24:56;;;;;;;8.10;3.25;;;24.60;61.40;;;;;;5101303;27;20273;-79
2022/07/20 05:27:25;;;;;;;10.85;3.45;;;24.70;61.30;;;;;;5104196;27;20224;-78
2022/07/20 05:29:53;;;;;;;12.18;3.38;;;24.80;61.20;;;;;;5104391;28;20197;-78
2022/07/20 05:32:22;;;;;;;11.10;3.20;;;24.90;61.10;;;;;;5103604;28;20199;-80
2022/07/20 05:34:50;;;;;;;15.80;3.70;;;25.00;61.40;;;;;;5092383;28;20193;-80
2022/07/20 05:37:20;;;;;;;12.88;3.30;;;25.00;61.30;;;;;;5049414;28;20255;-77
2022/07/20 05:39:49;;;;;;;5.97;3.30;;;25.10;61.20;;;;;;5106256;28;20269;-80
2022/07/20 05:42:17;;;;;;;4.75;3.22;;;25.20;61.20;;;;;;5100441;28;20217;-79
2022/07/20 05:44:46;;;;;;;7.47;3.03;;;25.30;62.20;;;;;;5098059;27;20201;-78
2022/07/20 05:47:17;;;;;;;6.85;4.35;;;25.30;61.00;;;;;;5104840;27;20198;-78
2022/07/20 05:49:47;;;;;;;14.85;3.10;;;25.40;60.80;;;;;;5094894;27;20224;-78
2022/07/20 05:52:15;;;;;;;8.30;3.03;;;25.50;60.70;;;;;;5101092;27;20216;-80
2022/07/20 05:54:45;;;;;;;7.57;3.20;;;25.50;60.50;;;;;;5095387;28;20818;-80
2022/07/20 05:57:20;;;;;;;6.75;2.85;;;25.60;60.50;;;;;;5096868;27;20211;-80
2022/07/20 05:59:51;;;;;;;6.88;2.58;;;25.70;60.40;;;;;;5101793;27;20185;-84
2022/07/20 06:02:20;;;;;;;9.98;2.95;;;25.80;60.10;;;;;;5103073;27;20861;-79
2022/07/20 06:04:49;;;;;;;9.40;2.92;;;25.80;59.60;;;;;;5101499;27;20714;-79
2022/07/20 06:07:17;;;;;;;6.60;2.25;;;25.90;59.30;;;;;;5108841;27;20228;-76
2022/07/20 06:09:47;;;;;;;6.60;2.08;;;26.00;58.80;;;;;;5101360;27;20773;-79
2022/07/20 06:12:15;;;;;;;8.88;2.33;;;26.10;57.50;;;;;;5101269;27;20190;-79
2022/07/20 06:14:44;;;;;;;5.55;2.40;;;26.10;57.40;;;;;;5102222;27;20658;-80
2022/07/20 06:17:13;;;;;;;5.10;2.28;;;26.20;57.50;;;;;;5098912;27;20199;-79
2022/07/20 06:19:42;;;;;;;8.02;2.58;;;26.30;57.40;;;;;;5098907;27;20200;-79
2022/07/20 06:22:11;;;;;;;8.07;2.72;;;26.40;57.30;;;;;;5112248;27;20222;-80
2022/07/20 06:24:39;;;;;;;7.18;2.40;;;26.40;57.40;;;;;;5106318;27;20192;-80
2022/07/20 06:27:25;;;;;;;8.35;2.50;;;26.50;57.30;;;;;;5089083;28;20193;-78
2022/07/20 06:29:53;;;;;;;7.45;2.35;;;26.60;57.10;;;;;;5095637;28;20846;-82
2022/07/20 06:32:22;;;;;;;9.40;2.70;;;26.70;56.70;;;;;;5107886;27;20193;-82
2022/07/20 06:34:51;;;;;;;6.25;2.00;;;26.70;56.30;;;;;;5104764;28;20197;-80
2022/07/20 06:37:19;;;;;;;6.13;2.55;;;26.80;56.00;;;;;;5104477;28;20903;-84
2022/07/20 06:39:48;;;;;;;9.43;2.38;;;26.90;55.80;;;;;;5104101;28;20197;-79
2022/07/20 06:42:17;;;;;;;5.90;2.20;;;26.90;55.60;;;;;;5103674;28;20227;-81
2022/07/20 06:44:47;;;;;;;7.07;2.72;;;27.00;55.50;;;;;;5102175;28;20193;-80
2022/07/20 06:47:16;;;;;;;7.18;2.38;;;27.10;55.40;;;;;;5107657;27;20197;-81
2022/07/20 06:49:45;;;;;;;9.02;2.40;;;27.20;55.30;;;;;;5108107;28;20611;-80
2022/07/20 06:52:13;;;;;;;5.13;2.35;;;27.20;55.20;;;;;;5104425;28;20247;-84
2022/07/20 06:54:43;;;;;;;9.70;2.22;;;27.30;55.20;;;;;;5103985;28;20189;-78
2022/07/20 06:57:11;;;;;;;5.97;2.15;;;27.30;55.00;;;;;;5104950;28;20207;-81
2022/07/20 06:59:40;;;;;;;8.18;2.92;;;27.40;55.00;;;;;;5104298;28;20193;-78
2022/07/20 07:02:10;;;;;;;4.10;2.03;;;27.50;54.90;;;;;;5106968;28;20219;-80
2022/07/20 07:04:39;;;;;;;5.40;2.35;;;27.50;54.80;;;;;;5105874;28;20841;-79
2022/07/20 07:07:08;;;;;;;8.25;2.10;;;27.60;54.70;;;;;;5105460;28;20197;-82
2022/07/20 07:09:36;;;;;;;4.45;1.73;;;27.70;53.90;;;;;;5108003;28;20690;-80
2022/07/20 07:12:09;;;;;;;9.50;2.28;;;27.80;53.50;;;;;;5109430;28;20205;-78
2022/07/20 07:14:38;;;;;;;6.60;2.13;;;27.80;53.40;;;;;;5107166;27;20201;-83
2022/07/20 07:17:06;;;;;;;5.35;1.75;;;27.90;53.20;;;;;;5108350;27;20690;-80
2022/07/20 07:19:36;;;;;;;8.10;2.35;;;27.90;53.30;;;;;;5103603;28;20670;-81
2022/07/20 07:22:05;;;;;;;3.70;2.10;;;28.00;52.90;;;;;;5110447;28;20234;-81
2022/07/20 07:24:34;;;;;;;2.90;1.95;;;28.10;52.60;;;;;;5110239;28;20204;-86
2022/07/20 07:27:02;;;;;;;5.82;2.35;;;28.10;52.20;;;;;;5108911;28;20197;-82
2022/07/20 07:29:31;;;;;;;4.85;1.73;;;28.20;52.30;;;;;;5107342;28;20190;-83
2022/07/20 07:32:07;;;;;;;8.00;2.05;;;28.20;52.20;;;;;;5107544;28;20594;-83
2022/07/20 07:34:37;;;;;;;4.68;1.80;;;28.30;52.00;;;;;;5108768;28;20200;-83
2022/07/20 07:37:06;;;;;;;4.93;1.77;;;28.40;51.70;;;;;;5107898;27;20239;-81
2022/07/20 07:39:34;;;;;;;6.03;1.73;;;28.50;51.30;;;;;;5111450;27;20199;-81
2022/07/20 07:42:03;;;;;;;5.70;1.75;;;28.50;51.00;;;;;;5108262;28;20200;-80
2022/07/20 07:44:37;;;;;;;7.95;2.13;;;28.60;50.70;;;;;;5106267;27;20760;-80
2022/07/20 07:47:06;;;;;;;4.40;2.10;;;28.60;50.10;;;;;;5108658;27;20192;-80
2022/07/20 07:49:35;;;;;;;3.58;1.35;;;28.70;50.00;;;;;;5108525;28;20197;-78
2022/07/20 07:52:05;;;;;;;3.30;1.65;;;28.70;49.70;;;;;;5107022;28;20234;-82
2022/07/20 07:54:34;;;;;;;9.20;1.67;;;28.80;49.40;;;;;;5107723;28;20196;-83
2022/07/20 07:57:02;;;;;;;3.42;1.40;;;28.80;49.20;;;;;;5107614;28;20201;-81
2022/07/20 07:59:31;;;;;;;4.68;1.70;;;28.90;48.90;;;;;;5106122;27;20212;-79
2022/07/20 08:02:01;;;;;;;4.10;2.03;;;28.90;48.90;;;;;;5101126;28;20201;-76
2022/07/20 08:04:30;;;;;;;3.63;1.73;;;29.00;48.90;;;;;;5106953;28;20778;-80
2022/07/20 08:06:59;;;;;;;3.40;1.70;;;29.10;48.10;;;;;;5107974;28;20211;-80
2022/07/20 08:09:29;;;;;;;2.47;1.40;;;29.10;47.30;;;;;;5105909;28;20217;-79
2022/07/20 08:11:58;;;;;;;3.45;1.50;;;29.10;47.10;;;;;;5099353;27;20238;-83
2022/07/20 08:14:26;;;;;;;4.72;1.80;;;29.10;46.30;;;;;;5102402;27;20280;-79
2022/07/20 08:16:55;;;;;;;3.55;1.25;;;29.20;46.00;;;;;;5103338;27;20651;-83
2022/07/20 08:19:24;;;;;;;5.78;1.90;;;29.20;45.70;;;;;;5108510;27;20557;-79
2022/07/20 08:21:54;;;;;;;3.63;1.90;;;29.20;46.10;;;;;;5105486;27;20193;-81
2022/07/20 08:24:23;;;;;;;3.42;1.42;;;29.30;46.40;;;;;;5105980;27;20721;-78
2022/07/20 08:26:53;;;;;;;6.88;1.70;;;29.30;46.50;;;;;;5107021;28;20200;-81
2022/07/20 08:29:21;;;;;;;5.15;1.20;;;29.40;46.30;;;;;;5100478;27;20197;-80
2022/07/20 08:31:50;;;;;;;3.53;1.58;;;29.40;46.30;;;;;;5104807;27;20214;-80
2022/07/20 08:34:18;;;;;;;5.70;1.88;;;29.50;46.50;;;;;;5082526;27;20906;-81
2022/07/20 08:36:50;;;;;;;2.75;1.40;;;29.50;46.50;;;;;;5091566;28;20189;-78
2022/07/20 08:39:18;;;;;;;4.30;1.40;;;29.60;46.60;;;;;;5106635;27;20197;-79
2022/07/20 08:41:47;;;;;;;2.53;1.40;;;29.60;46.70;;;;;;5103531;28;20201;-80
2022/07/20 08:44:17;;;;;;;4.80;1.63;;;29.70;46.80;;;;;;5089680;27;20226;-79
2022/07/20 08:46:46;;;;;;;2.20;1.52;;;29.70;47.10;;;;;;5102946;27;20205;-77
2022/07/20 08:49:16;;;;;;;5.05;1.90;;;29.80;47.00;;;;;;5096106;27;20654;-80
2022/07/20 08:51:44;;;;;;;8.40;1.83;;;29.80;47.00;;;;;;5098824;27;20235;-78
2022/07/20 08:54:13;;;;;;;5.32;1.98;;;29.90;46.80;;;;;;5102852;27;20197;-80
2022/07/20 08:56:42;;;;;;;6.45;1.92;;;30.00;46.80;;;;;;5104405;28;20199;-79
2022/07/20 08:59:11;;;;;;;3.20;1.50;;;30.00;46.60;;;;;;5102163;28;20680;-78
2022/07/20 09:01:59;;;;;;;4.35;1.42;;;30.00;46.70;;;;;;5099870;28;20200;-78
2022/07/20 09:04:28;;;;;;;4.15;1.65;;;30.10;46.80;;;;;;5109967;27;20204;-78
2022/07/20 09:06:56;;;;;;;7.10;1.63;;;30.10;46.70;;;;;;5104425;27;20557;-78
2022/07/20 09:09:25;;;;;;;5.35;1.90;;;30.20;46.90;;;;;;5106110;27;20276;-79
2022/07/20 09:11:56;;;;;;;4.57;1.50;;;30.30;47.10;;;;;;5103537;27;20189;-77
2022/07/20 09:14:42;;;;;;;8.93;1.73;;;30.40;47.10;;;;;;5103572;28;20193;-77
2022/07/20 09:17:20;;;;;;;4.97;1.70;;;30.40;46.50;;;;;;5106111;28;20211;-80
2022/07/20 09:20:00;;;;;;;5.65;2.15;;;30.50;46.30;;;;;;5108465;27;20204;-78
2022/07/20 09:22:33;;;;;;;5.50;1.77;;;30.50;46.10;;;;;;5104341;27;20195;-77
2022/07/20 09:25:12;;;;;;;3.92;1.50;;;30.50;46.10;;;;;;5097591;28;20212;-78
2022/07/20 09:27:41;;;;;;;4.88;1.67;;;30.60;45.90;;;;;;5107113;27;20203;-78
2022/07/20 09:30:12;;;;;;;2.45;1.35;;;30.60;45.70;;;;;;5107223;28;20198;-78
2022/07/20 09:32:52;;;;;;;3.05;1.70;;;30.70;45.70;;;;;;5101995;27;20189;-78
2022/07/20 09:35:22;;;;;;;3.75;1.45;;;30.70;45.20;;;;;;5098391;28;20239;-78
2022/07/20 09:37:59;;;;;;;4.68;1.70;;;30.80;45.50;;;;;;5107699;27;20188;-77
2022/07/20 09:40:28;;;;;;;3.03;1.88;;;30.80;45.30;;;;;;5111529;27;20189;-76
2022/07/20 09:42:57;;;;;;;5.82;1.42;;;30.80;45.20;;;;;;5107648;27;20195;-77
2022/07/20 09:45:28;;;;;;;6.15;1.50;;;30.90;45.00;;;;;;5095479;28;20211;-78
2022/07/20 09:48:15;;;;;;;2.20;1.50;;;30.90;44.90;;;;;;5104173;27;20301;-76
2022/07/20 09:50:45;;;;;;;3.53;1.50;;;30.90;43.50;;;;;;5089796;27;20196;-77
2022/07/20 09:53:14;;;;;;;4.38;1.30;;;31.00;43.80;;;;;;5102971;27;20216;-77
2022/07/20 09:55:43;;;;;;;2.95;1.25;;;31.10;44.20;;;;;;5097671;28;20877;-76
2022/07/20 09:58:12;;;;;;;5.25;1.50;;;31.10;44.30;;;;;;5090020;27;20731;-77
2022/07/20 10:00:40;;;;;;;1.88;1.13;;;31.10;43.80;;;;;;5101331;28;20209;-78
2022/07/20 10:03:16;;;;;;;3.53;1.38;;;31.20;43.90;;;;;;5104112;27;20256;-77
2022/07/20 10:05:45;;;;;;;4.03;1.23;;;31.20;43.70;;;;;;5095594;28;20197;-78
2022/07/20 10:08:14;;;;;;;2.70;1.63;;;31.30;43.40;;;;;;5099275;28;20205;-77
2022/07/20 10:10:43;;;;;;;3.28;1.10;;;31.40;43.10;;;;;;5105355;28;20278;-76
2022/07/20 10:13:12;;;;;;;3.42;1.55;;;31.40;43.20;;;;;;5096237;27;20200;-76
2022/07/20 10:15:53;;;;;;;2.58;1.45;;;31.50;42.50;;;;;;5106466;28;20825;-77
2022/07/20 10:18:23;;;;;;;5.13;1.35;;;31.50;42.60;;;;;;5105231;28;20197;-76
2022/07/20 10:20:51;;;;;;;6.60;1.55;;;31.60;42.80;;;;;;5094044;28;20195;-78
2022/07/20 10:23:31;;;;;;;4.25;1.45;;;31.70;42.80;;;;;;5106004;27;20678;-76
2022/07/20 10:26:01;;;;;;;4.38;1.50;;;31.70;42.60;;;;;;5105883;27;20188;-76
2022/07/20 10:28:37;;;;;;;4.40;1.30;;;31.70;42.50;;;;;;5106662;27;20195;-78
2022/07/20 10:31:16;;;;;;;7.43;1.58;;;31.80;42.10;;;;;;5110618;28;20188;-77
2022/07/20 10:33:47;;;;;;;2.67;1.13;;;31.90;42.30;;;;;;5106108;27;20191;-77
2022/07/20 10:39:43;;;;;;;2.65;1.23;;;32.00;42.20;;;;;;5097329;27;20178;-77
2022/07/20 10:42:30;;;;;;;2.47;1.30;;;32.00;41.70;;;;;;5107428;28;20214;-76
2022/07/20 10:45:33;;;;;;;2.55;1.00;;;32.10;41.50;;;;;;5115549;27;20205;-78
2022/07/20 10:48:15;;;;;;;4.07;1.10;;;32.10;41.40;;;;;;5101593;27;20211;-77
2022/07/20 10:50:48;;;;;;;2.03;1.15;;;32.20;41.50;;;;;;5103112;28;20611;-77
2022/07/20 10:53:32;;;;;;;3.08;1.08;;;32.30;41.50;;;;;;5101226;27;20221;-78
2022/07/20 10:56:11;;;;;;;2.80;1.10;;;32.30;41.30;;;;;;5095280;28;20338;-79
2022/07/20 10:58:43;;;;;;;2.38;1.20;;;32.40;41.30;;;;;;5103580;28;20211;-78
2022/07/20 11:01:13;;;;;;;3.55;1.17;;;32.40;41.00;;;;;;5106585;28;20670;-77
2022/07/20 11:03:44;;;;;;;3.90;1.13;;;32.40;40.80;;;;;;5099032;28;20185;-77
2022/07/20 11:06:15;;;;;;;2.47;1.20;;;32.50;41.10;;;;;;5103869;28;20189;-77
2022/07/20 11:08:49;;;;;;;5.45;1.08;;;32.60;41.30;;;;;;5106341;28;20192;-77
2022/07/20 11:11:20;;;;;;;1.52;1.13;;;32.60;41.00;;;;;;5106812;28;20197;-77
2022/07/20 11:13:50;;;;;;;3.13;1.20;;;32.60;41.00;;;;;;5097878;28;20197;-78
2022/07/20 11:16:19;;;;;;;2.42;1.20;;;32.70;40.80;;;;;;5095471;28;20189;-77
2022/07/20 11:18:50;;;;;;;3.20;1.27;;;32.70;41.00;;;;;;5105597;28;20230;-78
2022/07/20 11:21:30;;;;;;;3.75;1.27;;;32.70;40.90;;;;;;5087696;28;20189;-79
2022/07/20 11:24:05;;;;;;;5.75;1.77;;;32.80;41.00;;;;;;5103467;28;20193;-79
2022/07/20 11:26:33;;;;;;;4.35;1.38;;;32.80;41.10;;;;;;5095043;28;20570;-78
2022/07/20 11:29:02;;;;;;;3.95;1.08;;;32.90;41.10;;;;;;5098575;28;20199;-78
2022/07/20 11:31:31;;;;;;;2.90;1.15;;;32.90;40.70;;;;;;5100478;28;20193;-77
2022/07/20 11:34:01;;;;;;;5.22;1.23;;;33.00;40.60;;;;;;5108381;28;20239;-77
2022/07/20 11:36:34;;;;;;;3.92;1.20;;;33.00;40.60;;;;;;5111648;28;20232;-78
2022/07/20 11:39:06;;;;;;;5.03;1.00;;;33.00;40.50;;;;;;5100113;28;20675;-78
2022/07/20 11:41:43;;;;;;;2.72;0.98;;;33.10;39.30;;;;;;5097714;28;20860;-78
2022/07/20 11:44:17;;;;;;;1.63;1.00;;;33.10;39.10;;;;;;5106166;28;20233;-78
2022/07/20 11:46:48;;;;;;;8.02;1.10;;;33.20;39.40;;;;;;5100954;28;20673;-77
2022/07/20 11:49:18;;;;;;;4.40;1.30;;;33.20;39.20;;;;;;5095515;28;20185;-77
2022/07/20 11:51:59;;;;;;;2.17;1.05;;;33.20;38.90;;;;;;5101703;28;20268;-78
2022/07/20 11:54:33;;;;;;;3.08;1.05;;;33.20;37.20;;;;;;5106593;28;20201;-80
2022/07/20 11:57:02;;;;;;;7.97;1.10;;;33.20;37.70;;;;;;5094231;27;20187;-78
2022/07/20 11:59:31;;;;;;;4.50;1.20;;;33.20;37.50;;;;;;5098317;28;20209;-78
2022/07/20 12:02:01;;;;;;;5.43;1.27;;;33.30;37.90;;;;;;5096031;27;20194;-79
2022/07/20 12:04:35;;;;;;;3.22;1.20;;;33.30;37.80;;;;;;5108628;27;20189;-79
2022/07/20 12:08:07;;;;;;;1.48;1.02;;;33.30;37.80;;;;;;5099634;28;20557;-79
2022/07/20 12:09:57;;;;;;;2.20;1.00;;;33.30;37.20;;;;;;5095705;28;20763;-77
2022/07/20 12:12:47;;;;;;;1.70;1.17;;;33.30;37.20;;;;;;5105395;27;20685;-79
2022/07/20 12:15:16;;;;;;;2.75;1.00;;;33.40;37.60;;;;;;5104124;28;20197;-80
2022/07/20 12:17:49;;;;;;;2.03;0.95;;;33.40;37.70;;;;;;5100018;27;20563;-78
2022/07/20 12:20:17;;;;;;;3.22;1.10;;;33.50;37.80;;;;;;5105958;28;20727;-78
2022/07/20 12:22:53;;;;;;;1.48;0.98;;;33.50;38.00;;;;;;5106350;27;20790;-77
2022/07/20 12:25:21;;;;;;;1.45;0.90;;;33.60;37.80;;;;;;5106191;28;20328;-77
2022/07/20 12:27:50;;;;;;;1.90;0.93;;;33.60;38.10;;;;;;5108713;28;20199;-77
2022/07/20 12:30:29;;;;;;;4.80;1.02;;;33.60;38.10;;;;;;5094160;28;20197;-78
2022/07/20 12:33:06;;;;;;;3.30;1.20;;;33.80;37.80;;;;;;5095901;27;20180;-78
2022/07/20 12:35:35;;;;;;;3.95;0.98;;;33.70;37.40;;;;;;5106827;28;20188;-80
2022/07/20 12:38:05;;;;;;;6.45;1.23;;;33.80;37.70;;;;;;5103168;28;20224;-78
2022/07/20 12:40:38;;;;;;;2.53;1.25;;;33.80;37.30;;;;;;5104188;27;20192;-77
2022/07/20 12:43:26;;;;;;;2.33;1.17;;;33.90;37.60;;;;;;5098263;27;20679;-76
2022/07/20 12:45:55;;;;;;;1.88;1.10;;;33.90;37.70;;;;;;5101227;28;20855;-77
2022/07/20 12:48:24;;;;;;;2.13;0.90;;;34.00;37.70;;;;;;5109401;28;20227;-77
2022/07/20 12:50:52;;;;;;;2.40;0.95;;;34.00;37.60;;;;;;5099810;27;20190;-78
2022/07/20 12:53:23;;;;;;;3.28;1.10;;;34.00;37.80;;;;;;5102032;28;20185;-76
2022/07/20 12:55:51;;;;;;;2.55;1.00;;;34.00;37.80;;;;;;5103490;27;20199;-77
2022/07/20 12:58:20;;;;;;;3.22;0.90;;;34.00;37.70;;;;;;5107520;27;20660;-76
2022/07/20 13:00:48;;;;;;;1.85;1.00;;;34.00;37.10;;;;;;5102782;27;20562;-78
2022/07/20 13:03:17;;;;;;;4.97;1.10;;;34.10;37.30;;;;;;5100256;28;20254;-77
2022/07/20 13:05:45;;;;;;;1.98;1.02;;;34.10;37.30;;;;;;5094360;27;20216;-79
2022/07/20 13:08:14;;;;;;;1.42;0.90;;;34.10;37.20;;;;;;5106051;28;20207;-77